createdAt,value
2023-04-11T00:00:19.637Z,4.67
2023-04-11T00:02:47.882Z,3.93
2023-04-11T00:05:15.632Z,4.83
2023-04-11T00:07:44.652Z,4.37
2023-04-11T00:10:12.350Z,3.97
2023-04-11T00:12:39.975Z,4.50
2023-04-11T00:15:09.579Z,4.00
2023-04-11T00:17:37.680Z,4.83
2023-04-11T00:20:08.134Z,4.13
2023-04-11T00:22:35.974Z,5.00
2023-04-11T00:25:05.309Z,4.40
2023-04-11T00:27:33.174Z,4.33
2023-04-11T00:30:00.885Z,4.60
2023-04-11T00:32:28.862Z,5.27
2023-04-11T00:34:56.575Z,5.93
2023-04-11T00:37:24.239Z,4.20
2023-04-11T00:39:53.026Z,4.60
2023-04-11T00:42:22.091Z,4.17
2023-04-11T00:44:50.034Z,4.63
2023-04-11T00:47:17.922Z,4.13
2023-04-11T00:49:46.363Z,3.57
2023-04-11T00:52:14.097Z,4.23
2023-04-11T00:54:41.926Z,4.23
2023-04-11T00:57:09.754Z,3.97
2023-04-11T00:59:39.398Z,4.00
2023-04-11T01:02:08.112Z,3.30
2023-04-11T01:04:35.892Z,4.23
2023-04-11T01:07:06.550Z,4.03
2023-04-11T01:09:36.201Z,3.70
2023-04-11T01:12:05.287Z,4.50
2023-04-11T01:14:33.094Z,3.77
2023-04-11T01:17:03.146Z,3.13
2023-04-11T01:19:31.773Z,4.23
2023-04-11T01:22:01.626Z,3.87
2023-04-11T01:24:30.813Z,3.10
2023-04-11T01:26:58.539Z,4.20
2023-04-11T01:29:26.230Z,3.67
2023-04-11T01:31:53.895Z,3.90
2023-04-11T01:34:23.559Z,3.67
2023-04-11T01:36:51.204Z,3.80
2023-04-11T01:39:18.879Z,3.90
2023-04-11T01:41:48.958Z,4.00
2023-04-11T01:44:16.880Z,4.20
2023-04-11T01:46:44.983Z,3.67
2023-04-11T01:49:16.240Z,3.90
2023-04-11T01:51:43.905Z,3.63
2023-04-11T01:54:11.810Z,4.13
2023-04-11T01:56:39.460Z,4.63
2023-04-11T01:59:08.491Z,5.47
2023-04-11T02:01:36.436Z,4.33
2023-04-11T02:04:04.334Z,4.30
2023-04-11T02:06:32.131Z,3.57
2023-04-11T02:08:59.769Z,4.77
2023-04-11T02:11:27.496Z,3.87
2023-04-11T02:13:55.146Z,3.83
2023-04-11T02:16:29.764Z,4.50
2023-04-11T02:18:58.272Z,4.03
2023-04-11T02:21:26.701Z,4.70
2023-04-11T02:23:54.364Z,3.93
2023-04-11T02:26:22.038Z,4.30
2023-04-11T02:28:49.699Z,3.80
2023-04-11T02:31:17.440Z,3.87
2023-04-11T02:33:46.480Z,4.70
2023-04-11T02:36:14.473Z,5.10
2023-04-11T02:38:42.205Z,4.77
2023-04-11T02:41:09.896Z,4.40
2023-04-11T02:43:37.674Z,5.13
2023-04-11T02:46:12.536Z,5.23
2023-04-11T02:48:40.944Z,4.97
2023-04-11T02:51:09.998Z,5.37
2023-04-11T02:53:37.648Z,5.00
2023-04-11T02:56:06.749Z,6.57
2023-04-11T02:58:38.888Z,7.27
2023-04-11T03:01:07.921Z,6.80
2023-04-11T03:03:36.937Z,5.80
2023-04-11T03:06:04.953Z,6.27
2023-04-11T03:08:35.839Z,6.63
2023-04-11T03:11:03.867Z,9.40
2023-04-11T03:13:32.746Z,7.97
2023-04-11T03:16:00.482Z,7.33
2023-04-11T03:18:28.203Z,6.97
2023-04-11T03:20:56.035Z,7.67
2023-04-11T03:23:23.745Z,9.73
2023-04-11T03:25:53.718Z,7.83
2023-04-11T03:28:21.365Z,8.13
2023-04-11T03:30:50.534Z,9.40
2023-04-11T03:33:18.247Z,8.17
2023-04-11T03:35:45.888Z,6.33
2023-04-11T03:38:13.591Z,6.93
2023-04-11T03:40:41.488Z,5.20
2023-04-11T03:43:10.597Z,6.37
2023-04-11T03:45:39.506Z,4.67
2023-04-11T03:48:07.663Z,4.87
2023-04-11T03:50:35.381Z,4.40
2023-04-11T03:53:03.083Z,4.57
2023-04-11T03:55:30.860Z,5.80
2023-04-11T03:57:58.612Z,4.90
2023-04-11T04:00:28.240Z,5.03
2023-04-11T04:02:56.039Z,3.70
2023-04-11T04:05:24.363Z,4.80
2023-04-11T04:07:53.537Z,4.50
2023-04-11T04:10:23.021Z,4.70
2023-04-11T04:12:50.888Z,4.43
2023-04-11T04:15:18.890Z,4.70
2023-04-11T04:17:48.069Z,4.83
2023-04-11T04:20:15.934Z,4.23
2023-04-11T04:22:47.443Z,5.57
2023-04-11T04:25:17.010Z,4.33
2023-04-11T04:27:46.612Z,4.67
2023-04-11T04:30:16.089Z,3.93
2023-04-11T04:32:45.094Z,4.57
2023-04-11T04:35:16.809Z,4.33
2023-04-11T04:37:46.570Z,4.60
2023-04-11T04:40:15.994Z,4.20
2023-04-11T04:42:44.147Z,3.73
2023-04-11T04:45:12.163Z,4.73
2023-04-11T04:47:40.060Z,3.70
2023-04-11T04:50:09.119Z,4.80
2023-04-11T04:52:38.547Z,4.57
2023-04-11T04:55:07.648Z,3.93
2023-04-11T04:57:35.810Z,3.40
2023-04-11T05:00:06.961Z,3.87
2023-04-11T05:02:35.618Z,3.90
2023-04-11T05:05:04.483Z,3.50
2023-04-11T05:07:32.486Z,5.10
2023-04-11T05:10:02.058Z,4.37
2023-04-11T05:12:30.153Z,3.67
2023-04-11T05:14:58.172Z,3.87
2023-04-11T05:17:27.898Z,2.93
2023-04-11T05:19:55.981Z,3.03
2023-04-11T05:22:24.022Z,4.37
2023-04-11T05:24:52.095Z,4.43
2023-04-11T05:27:21.734Z,2.20
2023-04-11T05:29:50.187Z,1.77
2023-04-11T05:32:18.089Z,1.57
2023-04-11T05:34:54.721Z,2.33
2023-04-11T05:37:23.796Z,1.60
2023-04-11T05:39:52.619Z,1.07
2023-04-11T05:42:21.873Z,1.13
2023-04-11T05:44:49.759Z,1.13
2023-04-11T05:47:17.644Z,0.40
2023-04-11T05:49:45.641Z,0.50
2023-04-11T05:52:13.508Z,1.27
2023-04-11T05:54:41.354Z,0.80
2023-04-11T05:57:09.348Z,1.27
2023-04-11T05:59:38.522Z,0.40
2023-04-11T06:02:06.367Z,2.07
2023-04-11T06:04:34.303Z,1.23
2023-04-11T06:07:03.933Z,1.27
2023-04-11T06:09:33.952Z,0.50
2023-04-11T06:12:01.937Z,1.60
2023-04-11T06:14:29.849Z,2.10
2023-04-11T06:16:59.075Z,1.07
2023-04-11T06:19:27.033Z,0.60
2023-04-11T06:21:54.949Z,0.60
2023-04-11T06:24:36.367Z,0.30
2023-04-11T06:27:04.656Z,0.57
2023-04-11T06:29:32.634Z,0.30
2023-04-11T06:32:01.904Z,1.77
2023-04-11T06:34:29.892Z,1.37
2023-04-11T06:36:58.008Z,0.40
2023-04-11T06:39:25.858Z,1.27
2023-04-11T06:41:53.832Z,0.87
2023-04-11T06:44:21.679Z,0.30
2023-04-11T06:46:49.669Z,2.23
2023-04-11T06:49:19.045Z,0.40
2023-04-11T06:51:50.041Z,1.17
2023-04-11T06:54:18.063Z,1.07
2023-04-11T06:56:45.784Z,0.37
2023-04-11T06:59:13.413Z,0.37
2023-04-11T07:01:41.144Z,1.13
2023-04-11T07:04:09.594Z,0.97
2023-04-11T07:06:38.842Z,0.93
2023-04-11T07:09:07.293Z,0.60
2023-04-11T07:11:35.069Z,1.17
2023-04-11T07:14:03.291Z,3.03
2023-04-11T07:16:31.112Z,0.40
2023-04-11T07:18:59.205Z,1.30
2023-04-11T07:21:27.439Z,0.97
2023-04-11T07:23:57.017Z,0.60
2023-04-11T07:26:27.243Z,0.90
2023-04-11T07:28:55.009Z,0.50
2023-04-11T07:31:23.095Z,0.87
2023-04-11T07:33:51.220Z,0.93
2023-04-11T07:36:18.965Z,2.57
2023-04-11T07:38:46.949Z,0.90
2023-04-11T07:41:17.068Z,1.07
2023-04-11T07:43:45.032Z,0.57
2023-04-11T07:46:15.196Z,0.50
2023-04-11T07:48:43.754Z,0.90
2023-04-11T07:51:11.340Z,0.67
2023-04-11T07:53:38.984Z,1.90
2023-04-11T07:56:07.277Z,1.83
2023-04-11T07:58:36.282Z,0.50
2023-04-11T08:01:04.015Z,1.90
2023-04-11T08:03:32.047Z,0.63
2023-04-11T08:05:59.877Z,0.60
2023-04-11T08:08:27.535Z,0.73
2023-04-11T08:10:55.197Z,0.73
2023-04-11T08:13:22.861Z,0.77
2023-04-11T08:15:51.933Z,1.47
2023-04-11T08:18:21.586Z,3.20
2023-04-11T08:20:49.349Z,3.00
2023-04-11T08:23:19.649Z,1.83
2023-04-11T08:25:47.701Z,1.60
2023-04-11T08:28:15.494Z,1.43
2023-04-11T08:30:43.126Z,4.10
2023-04-11T08:33:12.212Z,1.93
2023-04-11T08:35:42.986Z,1.17
2023-04-11T08:38:10.675Z,1.77
2023-04-11T08:40:38.345Z,1.37
2023-04-11T08:43:11.942Z,1.70
2023-04-11T08:45:39.713Z,2.67
2023-04-11T08:48:07.914Z,1.23
2023-04-11T08:50:36.986Z,1.73
2023-04-11T08:53:04.969Z,1.73
2023-04-11T08:55:32.971Z,3.00
2023-04-11T08:58:02.831Z,1.77
2023-04-11T09:00:32.365Z,1.53
2023-04-11T09:03:02.191Z,2.03
2023-04-11T09:05:31.993Z,2.07
2023-04-11T09:08:02.623Z,2.95
2023-04-11T09:10:30.285Z,1.55
2023-04-11T09:12:58.797Z,0.93
2023-04-11T09:15:28.018Z,1.08
2023-04-11T09:17:58.938Z,1.97
2023-04-11T09:20:30.298Z,2.60
2023-04-11T09:22:59.803Z,6.07
2023-04-11T09:25:29.265Z,1.53
2023-04-11T09:28:08.746Z,1.77
2023-04-11T09:30:36.887Z,1.27
2023-04-11T09:33:21.637Z,2.80
2023-04-11T09:35:50.967Z,1.77
2023-04-11T09:38:32.754Z,1.23
2023-04-11T09:41:03.071Z,3.50
2023-04-11T09:43:49.534Z,1.40
2023-04-11T09:46:18.764Z,0.73
2023-04-11T09:48:47.254Z,1.10
2023-04-11T09:51:24.300Z,1.73
2023-04-11T09:53:59.971Z,2.77
2023-04-11T09:56:29.982Z,2.40
2023-04-11T09:58:58.446Z,0.50
2023-04-11T10:01:27.414Z,1.57
2023-04-11T10:03:57.399Z,0.80
2023-04-11T10:06:33.768Z,0.70
2023-04-11T10:09:12.600Z,0.50
2023-04-11T10:11:44.225Z,0.33
2023-04-11T10:14:43.841Z,2.57
2023-04-11T10:17:13.729Z,0.93
2023-04-11T10:19:41.631Z,2.80
2023-04-11T10:22:09.462Z,2.00
2023-04-11T10:24:37.144Z,1.15
2023-04-11T10:27:07.564Z,1.73
2023-04-11T10:29:49.985Z,1.17
2023-04-11T10:32:21.336Z,2.58
2023-04-11T10:35:31.991Z,1.25
2023-04-11T10:37:59.712Z,4.78
2023-04-11T10:40:27.506Z,3.17
2023-04-11T10:42:57.417Z,0.73
2023-04-11T10:45:26.598Z,0.60
2023-04-11T10:48:19.293Z,2.50
2023-04-11T10:50:47.191Z,1.07
2023-04-11T10:53:37.428Z,0.93
2023-04-11T10:56:05.739Z,1.73
2023-04-11T10:58:39.471Z,2.57
2023-04-11T11:01:37.171Z,0.97
2023-04-11T11:04:10.992Z,1.50
2023-04-11T11:06:47.353Z,1.30
2023-04-11T11:09:24.007Z,1.70
2023-04-11T11:12:06.671Z,1.37
2023-04-11T11:14:35.773Z,0.67
2023-04-11T11:17:04.016Z,1.97
2023-04-11T11:19:32.438Z,2.53
2023-04-11T11:22:03.652Z,1.40
2023-04-11T11:24:32.144Z,0.90
2023-04-11T11:27:00.068Z,1.30
2023-04-11T11:29:32.033Z,0.50
2023-04-11T11:32:03.387Z,4.23
2023-04-11T11:34:32.441Z,2.27
2023-04-11T11:37:04.766Z,1.10
2023-04-11T11:39:33.908Z,2.10
2023-04-11T11:42:02.056Z,1.00
2023-04-11T11:44:31.853Z,1.23
2023-04-11T11:47:05.160Z,1.80
2023-04-11T11:49:46.365Z,1.47
2023-04-11T11:52:14.690Z,2.17
2023-04-11T11:54:46.391Z,1.93
2023-04-11T11:57:22.562Z,1.20
2023-04-11T11:59:54.245Z,2.13
2023-04-11T12:02:24.709Z,1.33
2023-04-11T12:04:59.720Z,1.60
2023-04-11T12:07:32.330Z,1.93
2023-04-11T12:10:01.221Z,6.43
2023-04-11T12:12:39.478Z,2.50
2023-04-11T12:15:12.076Z,1.97
2023-04-11T12:17:41.816Z,2.10
2023-04-11T12:20:11.181Z,1.17
2023-04-11T12:22:39.010Z,1.50
2023-04-11T12:25:07.847Z,1.03
2023-04-11T12:27:37.770Z,2.03
2023-04-11T12:30:06.468Z,1.33
2023-04-11T12:32:34.892Z,1.13
2023-04-11T12:35:05.190Z,1.17
2023-04-11T12:37:33.546Z,1.23
2023-04-11T12:40:01.455Z,1.23
2023-04-11T12:42:29.221Z,3.10
2023-04-11T12:44:56.881Z,3.03
2023-04-11T12:47:24.557Z,2.60
2023-04-11T12:49:52.280Z,1.43
2023-04-11T12:52:21.471Z,1.23
2023-04-11T12:54:49.173Z,2.57
2023-04-11T12:57:17.022Z,0.53
2023-04-11T12:59:44.654Z,1.13
2023-04-11T13:02:12.461Z,1.53
2023-04-11T13:04:40.293Z,3.03
2023-04-11T13:07:09.971Z,4.17
2023-04-11T13:09:39.255Z,1.77
2023-04-11T13:12:07.574Z,4.57
2023-04-11T13:14:36.400Z,1.97
2023-04-11T13:17:04.310Z,3.20
2023-04-11T13:19:32.161Z,2.33
2023-04-11T13:21:59.758Z,1.13
2023-04-11T13:24:27.610Z,2.00
2023-04-11T13:26:57.104Z,0.93
2023-04-11T13:29:24.790Z,2.63
2023-04-11T13:31:52.470Z,1.87
2023-04-11T13:34:20.218Z,0.97
2023-04-11T13:36:48.007Z,2.40
2023-04-11T13:39:16.031Z,0.97
2023-04-11T13:41:43.745Z,0.93
2023-04-11T13:44:12.673Z,2.10
2023-04-11T13:46:40.414Z,2.53
2023-04-11T13:49:08.073Z,1.60
2023-04-11T13:51:35.968Z,1.60
2023-04-11T13:54:03.697Z,1.13
2023-04-11T13:56:31.284Z,2.00
2023-04-11T13:58:59.206Z,0.73
2023-04-11T14:01:28.515Z,1.73
2023-04-11T14:03:56.510Z,1.57
2023-04-11T14:06:24.458Z,0.80
2023-04-11T14:08:52.110Z,3.57
2023-04-11T14:11:19.774Z,2.27
2023-04-11T14:13:47.469Z,2.17
2023-04-11T14:16:15.161Z,2.43
2023-04-11T14:18:44.635Z,1.50
2023-04-11T14:21:12.365Z,1.67
2023-04-11T14:23:40.077Z,1.37
2023-04-11T14:26:07.905Z,1.70
2023-04-11T14:28:35.999Z,1.70
2023-04-11T14:31:03.756Z,2.30
2023-04-11T14:33:31.877Z,0.70
2023-04-11T14:36:00.876Z,0.73
2023-04-11T14:38:28.544Z,1.30
2023-04-11T14:40:56.254Z,1.17
2023-04-11T14:43:23.898Z,0.30
2023-04-11T14:45:51.581Z,0.57
2023-04-11T14:48:19.251Z,0.37
2023-04-11T14:50:46.909Z,0.73
2023-04-11T14:53:16.651Z,1.27
2023-04-11T14:55:44.705Z,6.50
2023-04-11T14:58:12.450Z,2.13
2023-04-11T15:00:40.298Z,1.87
2023-04-11T15:03:08.168Z,2.30
2023-04-11T15:05:36.583Z,1.43
2023-04-11T15:08:04.481Z,0.40
2023-04-11T15:10:33.499Z,1.83
2023-04-11T15:13:01.141Z,1.87
2023-04-11T15:15:28.810Z,0.93
2023-04-11T15:18:21.808Z,2.80
2023-04-11T15:20:49.577Z,1.17
2023-04-11T15:23:17.407Z,2.20
2023-04-11T15:25:47.728Z,1.50
2023-04-11T15:28:15.426Z,1.00
2023-04-11T15:30:48.461Z,1.57
2023-04-11T15:33:17.116Z,0.70
2023-04-11T15:35:45.826Z,1.53
2023-04-11T15:38:15.028Z,0.70
2023-04-11T15:40:43.064Z,1.77
2023-04-11T15:43:12.149Z,1.63
2023-04-11T15:45:40.422Z,2.03
2023-04-11T15:48:08.093Z,3.33
2023-04-11T15:50:35.931Z,0.90
2023-04-11T15:53:03.605Z,0.50
2023-04-11T15:55:31.689Z,1.17
2023-04-11T15:57:59.563Z,1.03
2023-04-11T16:00:28.853Z,1.43
2023-04-11T16:03:02.693Z,2.43
2023-04-11T16:05:31.320Z,1.10
2023-04-11T16:07:59.164Z,0.87
2023-04-11T16:10:27.105Z,0.57
2023-04-11T16:12:54.710Z,1.33
2023-04-11T16:15:22.415Z,2.73
2023-04-11T16:17:51.430Z,2.77
2023-04-11T16:20:21.188Z,1.57
2023-04-11T16:22:49.556Z,3.30
2023-04-11T16:25:20.866Z,1.30
2023-04-11T16:27:48.767Z,1.10
2023-04-11T16:30:16.903Z,2.50
2023-04-11T16:32:44.907Z,1.67
2023-04-11T16:35:13.970Z,2.03
2023-04-11T16:37:41.695Z,1.53
2023-04-11T16:40:11.267Z,2.33
2023-04-11T16:42:39.587Z,1.80
2023-04-11T16:45:08.662Z,1.80
2023-04-11T16:47:36.748Z,1.07
2023-04-11T16:50:05.667Z,1.43
2023-04-11T16:52:34.901Z,1.57
2023-04-11T16:55:03.471Z,2.40
2023-04-11T16:57:33.150Z,1.33
2023-04-11T17:00:06.213Z,1.23
2023-04-11T17:02:34.039Z,1.47
2023-04-11T17:05:01.786Z,2.20
2023-04-11T17:07:29.491Z,1.00
2023-04-11T17:09:58.516Z,1.97
2023-04-11T17:12:27.070Z,1.80
2023-04-11T17:14:56.033Z,1.40
2023-04-11T17:17:24.938Z,3.40
2023-04-11T17:19:53.259Z,2.20
2023-04-11T17:22:21.394Z,1.43
2023-04-11T17:24:49.332Z,2.67
2023-04-11T17:27:18.355Z,2.17
2023-04-11T17:29:45.986Z,2.50
2023-04-11T17:32:13.670Z,1.40
2023-04-11T17:34:41.660Z,1.63
2023-04-11T17:37:09.495Z,3.43
2023-04-11T17:39:37.243Z,6.73
2023-04-11T17:42:05.680Z,3.80
2023-04-11T17:44:34.694Z,2.47
2023-04-11T17:47:02.333Z,2.77
2023-04-11T17:49:30.146Z,1.53
2023-04-11T17:51:59.626Z,2.33
2023-04-11T17:54:27.715Z,2.77
2023-04-11T17:56:56.401Z,1.37
2023-04-11T17:59:25.554Z,1.97
2023-04-11T18:01:55.936Z,4.07
2023-04-11T18:04:24.006Z,2.23
2023-04-11T18:06:53.850Z,3.53
2023-04-11T18:09:23.935Z,3.50
2023-04-11T18:11:51.663Z,1.67
2023-04-11T18:14:19.378Z,1.50
2023-04-11T18:16:47.506Z,2.33
2023-04-11T18:19:16.554Z,2.03
2023-04-11T18:21:44.504Z,2.30
2023-04-11T18:24:12.300Z,1.87
2023-04-11T18:26:40.280Z,3.33
2023-04-11T18:29:08.070Z,1.70
2023-04-11T18:31:35.812Z,2.57
2023-04-11T18:34:05.286Z,3.73
2023-04-11T18:36:35.890Z,2.90
2023-04-11T18:39:03.928Z,4.30
2023-04-11T18:41:31.597Z,3.57
2023-04-11T18:44:00.811Z,1.87
2023-04-11T18:46:29.135Z,2.83
2023-04-11T18:48:56.845Z,4.40
2023-04-11T18:51:24.534Z,2.00
2023-04-11T18:53:53.624Z,2.27
2023-04-11T18:56:21.440Z,2.13
2023-04-11T18:58:52.521Z,3.47
2023-04-11T19:01:22.310Z,1.80
2023-04-11T19:03:50.359Z,3.80
2023-04-11T19:06:18.147Z,3.73
2023-04-11T19:08:45.853Z,2.97
2023-04-11T19:11:14.997Z,3.17
2023-04-11T19:13:42.774Z,2.67
2023-04-11T19:16:10.820Z,10.00
2023-04-11T19:18:38.618Z,6.27
2023-04-11T19:21:07.542Z,3.63
2023-04-11T19:23:35.641Z,1.33
2023-04-11T19:26:03.418Z,3.87
2023-04-11T19:28:32.465Z,5.00
2023-04-11T19:31:00.186Z,4.13
2023-04-11T19:33:27.947Z,3.87
2023-04-11T19:35:55.725Z,10.60
2023-04-11T19:38:23.493Z,6.83
2023-04-11T19:40:51.206Z,3.37
2023-04-11T19:43:19.722Z,3.07
2023-04-11T19:45:48.951Z,3.87
2023-04-11T19:48:16.989Z,3.27
2023-04-11T19:50:44.820Z,3.70
2023-04-11T19:53:12.747Z,3.27
2023-04-11T19:55:41.159Z,5.97
2023-04-11T19:58:09.178Z,2.03
2023-04-11T20:00:38.525Z,4.30
2023-04-11T20:03:12.500Z,2.00
2023-04-11T20:05:40.880Z,5.27
2023-04-11T20:08:09.049Z,2.30
2023-04-11T20:10:37.924Z,3.57
2023-04-11T20:13:06.079Z,1.87
2023-04-11T20:15:34.129Z,4.87
2023-04-11T20:18:02.326Z,4.30
2023-04-11T20:20:33.735Z,2.93
2023-04-11T20:23:05.510Z,3.97
2023-04-11T20:25:33.568Z,2.87
2023-04-11T20:28:02.152Z,4.10
2023-04-11T20:30:30.818Z,3.63
2023-04-11T20:32:59.160Z,5.03
2023-04-11T20:35:27.237Z,2.30
2023-04-11T20:37:56.728Z,2.00
2023-04-11T20:40:24.972Z,2.37
2023-04-11T20:42:53.102Z,2.93
2023-04-11T20:45:21.914Z,4.23
2023-04-11T20:47:50.922Z,3.73
2023-04-11T20:50:20.129Z,4.10
2023-04-11T20:52:52.559Z,3.03
2023-04-11T20:55:21.763Z,3.93
2023-04-11T20:57:49.654Z,1.57
2023-04-11T21:00:18.604Z,5.43
2023-04-11T21:02:50.114Z,4.23
2023-04-11T21:05:22.102Z,2.50
2023-04-11T21:07:50.467Z,2.10
2023-04-11T21:10:20.890Z,5.10
2023-04-11T21:12:53.666Z,3.43
2023-04-11T21:15:22.059Z,4.60
2023-04-11T21:17:50.196Z,5.70
2023-04-11T21:20:19.597Z,5.00
2023-04-11T21:22:48.701Z,3.93
2023-04-11T21:25:16.993Z,3.03
2023-04-11T21:27:45.479Z,3.20
2023-04-11T21:30:15.374Z,3.00
2023-04-11T21:32:43.413Z,3.40
2023-04-11T21:35:12.910Z,3.50
2023-04-11T21:37:40.838Z,4.63
2023-04-11T21:40:10.305Z,3.57
2023-04-11T21:42:38.226Z,3.70
2023-04-11T21:45:08.314Z,3.33
2023-04-11T21:47:37.655Z,3.03
2023-04-11T21:50:05.984Z,4.60
2023-04-11T21:52:35.316Z,3.40
2023-04-11T21:55:03.111Z,6.20
2023-04-11T21:57:36.112Z,5.10
2023-04-11T22:00:04.372Z,4.60
2023-04-11T22:02:32.317Z,2.80
2023-04-11T22:05:06.282Z,6.50
2023-04-11T22:07:38.965Z,3.40
2023-04-11T22:10:10.301Z,2.83
2023-04-11T22:12:38.176Z,3.03
2023-04-11T22:15:07.001Z,4.97
2023-04-11T22:17:37.153Z,4.40
2023-04-11T22:20:09.329Z,3.77
2023-04-11T22:22:38.615Z,3.07
2023-04-11T22:25:07.524Z,3.90
2023-04-11T22:27:35.370Z,3.40
2023-04-11T22:30:05.332Z,1.93
2023-04-11T22:32:33.680Z,3.60
2023-04-11T22:35:01.476Z,2.80
2023-04-11T22:37:30.552Z,2.43
2023-04-11T22:39:58.465Z,3.40
2023-04-11T22:42:26.645Z,5.60
2023-04-11T22:44:54.335Z,4.40
2023-04-11T22:47:22.080Z,4.07
2023-04-11T22:49:50.298Z,4.37
2023-04-11T22:52:24.255Z,4.40
2023-04-11T22:54:53.424Z,2.33
2023-04-11T22:57:21.436Z,5.13
2023-04-11T22:59:49.123Z,1.70
2023-04-11T23:02:17.491Z,2.33
2023-04-11T23:04:45.567Z,4.40
2023-04-11T23:07:13.383Z,2.17
2023-04-11T23:09:41.114Z,4.07
2023-04-11T23:12:10.287Z,3.67
2023-04-11T23:14:37.892Z,2.43
2023-04-11T23:17:05.710Z,3.30
2023-04-11T23:19:34.132Z,3.43
2023-04-11T23:22:01.868Z,3.87
2023-04-11T23:24:30.333Z,3.73
2023-04-11T23:26:58.821Z,1.83
2023-04-11T23:29:28.243Z,1.87
2023-04-11T23:31:56.103Z,4.20
2023-04-11T23:34:23.920Z,5.37
2023-04-11T23:36:51.718Z,2.27
2023-04-11T23:39:21.527Z,2.30
2023-04-11T23:41:49.254Z,4.17
2023-04-11T23:44:17.474Z,4.47
2023-04-11T23:46:46.540Z,3.40
2023-04-11T23:49:14.250Z,2.13
2023-04-11T23:51:42.397Z,5.67
2023-04-11T23:54:10.632Z,2.60
2023-04-11T23:56:38.528Z,4.40
2023-04-11T23:59:07.022Z,3.43
